createdAt,value
2023-01-23T00:00:57.076Z,9.07
2023-01-23T00:03:24.458Z,11.00
2023-01-23T00:06:03.119Z,10.63
2023-01-23T00:08:30.577Z,10.20
2023-01-23T00:10:57.865Z,10.02
2023-01-23T00:13:25.496Z,10.48
2023-01-23T00:15:52.470Z,9.32
2023-01-23T00:18:19.800Z,9.13
2023-01-23T00:20:46.612Z,9.50
2023-01-23T00:23:13.823Z,9.00
2023-01-23T00:25:40.667Z,8.40
2023-01-23T00:28:07.838Z,7.28
2023-01-23T00:30:34.813Z,6.97
2023-01-23T00:33:02.003Z,6.97
2023-01-23T00:35:28.979Z,6.90
2023-01-23T00:37:56.220Z,6.72
2023-01-23T00:40:23.192Z,7.18
2023-01-23T00:42:50.614Z,7.33
2023-01-23T00:45:17.629Z,7.22
2023-01-23T00:47:44.834Z,7.40
2023-01-23T00:50:12.287Z,6.93
2023-01-23T00:52:39.613Z,8.45
2023-01-23T00:55:07.392Z,6.80
2023-01-23T00:57:34.546Z,6.57
2023-01-23T01:00:01.402Z,7.05
2023-01-23T01:02:29.582Z,7.00
2023-01-23T01:04:56.666Z,7.28
2023-01-23T01:07:23.856Z,6.63
2023-01-23T01:09:50.714Z,7.93
2023-01-23T01:12:19.441Z,7.50
2023-01-23T01:14:46.320Z,7.55
2023-01-23T01:17:15.631Z,7.50
2023-01-23T01:19:42.550Z,7.90
2023-01-23T01:22:09.733Z,7.05
2023-01-23T01:24:36.605Z,7.47
2023-01-23T01:27:03.859Z,7.47
2023-01-23T01:29:30.696Z,7.72
2023-01-23T01:31:57.998Z,7.57
2023-01-23T01:34:24.879Z,8.52
2023-01-23T01:36:52.140Z,8.45
2023-01-23T01:39:19.097Z,7.95
2023-01-23T01:41:46.470Z,8.52
2023-01-23T01:44:23.854Z,8.53
2023-01-23T01:46:51.569Z,9.00
2023-01-23T01:49:26.557Z,8.45
2023-01-23T01:52:03.024Z,8.95
2023-01-23T01:54:56.497Z,9.02
2023-01-23T01:57:37.244Z,7.90
2023-01-23T02:00:17.173Z,8.38
2023-01-23T02:02:54.538Z,7.85
2023-01-23T02:05:27.894Z,8.07
2023-01-23T02:08:03.659Z,8.48
2023-01-23T02:10:32.512Z,7.17
2023-01-23T02:13:23.711Z,8.18
2023-01-23T02:15:51.649Z,7.82
2023-01-23T02:18:20.860Z,7.72
2023-01-23T02:20:49.112Z,7.05
2023-01-23T02:23:33.356Z,7.63
2023-01-23T02:26:03.393Z,6.70
2023-01-23T02:28:57.481Z,7.97
2023-01-23T02:31:28.251Z,7.10
2023-01-23T02:33:58.231Z,6.95
2023-01-23T02:36:30.768Z,7.67
2023-01-23T02:39:00.107Z,7.68
2023-01-23T02:41:33.108Z,7.57
2023-01-23T02:44:06.944Z,7.35
2023-01-23T02:46:34.056Z,7.90
2023-01-23T02:49:01.342Z,8.10
2023-01-23T02:51:28.336Z,7.70
2023-01-23T02:53:56.221Z,7.10
2023-01-23T02:56:23.189Z,8.48
2023-01-23T02:59:09.122Z,8.90
2023-01-23T03:01:36.331Z,9.10
2023-01-23T03:04:06.456Z,7.88
2023-01-23T03:06:38.749Z,7.50
2023-01-23T03:09:10.984Z,8.05
2023-01-23T03:11:41.339Z,7.28
2023-01-23T03:14:11.808Z,6.93
2023-01-23T03:16:38.853Z,7.28
2023-01-23T03:19:09.177Z,7.47
2023-01-23T03:21:40.143Z,7.40
2023-01-23T03:24:10.790Z,7.40
2023-01-23T03:26:42.374Z,7.30
2023-01-23T03:29:40.495Z,7.50
2023-01-23T03:32:08.556Z,7.00
2023-01-23T03:34:36.089Z,6.85
2023-01-23T03:37:04.973Z,7.05
2023-01-23T03:39:52.436Z,6.03
2023-01-23T03:42:21.321Z,7.50
2023-01-23T03:44:52.682Z,7.00
2023-01-23T03:47:22.888Z,7.40
2023-01-23T03:49:50.440Z,6.70
2023-01-23T03:52:18.767Z,7.40
2023-01-23T03:54:46.274Z,7.90
2023-01-23T03:57:14.164Z,7.18
2023-01-23T04:00:14.036Z,8.20
2023-01-23T04:02:41.551Z,8.45
2023-01-23T04:05:11.609Z,8.00
2023-01-23T04:07:39.364Z,8.25
2023-01-23T04:10:06.702Z,9.02
2023-01-23T04:12:33.814Z,8.50
2023-01-23T04:15:01.039Z,9.48
2023-01-23T04:17:28.459Z,8.77
2023-01-23T04:19:55.598Z,8.98
2023-01-23T04:22:22.497Z,8.75
2023-01-23T04:24:51.070Z,8.23
2023-01-23T04:27:18.886Z,9.80
2023-01-23T04:29:48.026Z,8.33
2023-01-23T04:32:15.255Z,9.10
2023-01-23T04:34:46.224Z,8.27
2023-01-23T04:37:13.232Z,8.40
2023-01-23T04:39:41.420Z,8.82
2023-01-23T04:42:08.520Z,9.27
2023-01-23T04:45:05.223Z,9.25
2023-01-23T04:47:50.248Z,8.30
2023-01-23T04:50:17.895Z,9.13
2023-01-23T04:52:46.393Z,9.02
2023-01-23T04:55:14.371Z,8.57
2023-01-23T04:57:43.072Z,8.85
2023-01-23T05:00:22.001Z,8.25
2023-01-23T05:02:50.395Z,8.70
2023-01-23T05:05:20.925Z,9.00
2023-01-23T05:07:51.042Z,9.00
2023-01-23T05:10:19.371Z,8.57
2023-01-23T05:12:47.570Z,8.88
2023-01-23T05:15:15.275Z,8.25
2023-01-23T05:17:44.488Z,8.35
2023-01-23T05:20:13.644Z,8.27
2023-01-23T05:22:52.629Z,8.13
2023-01-23T05:25:27.504Z,9.18
2023-01-23T05:27:56.298Z,8.02
2023-01-23T05:30:24.760Z,7.55
2023-01-23T05:32:57.640Z,7.67
2023-01-23T05:35:24.929Z,7.85
2023-01-23T05:37:53.085Z,8.52
2023-01-23T05:40:24.016Z,8.65
2023-01-23T05:43:14.142Z,7.55
2023-01-23T05:46:01.650Z,7.67
2023-01-23T05:48:40.276Z,7.97
2023-01-23T05:51:10.683Z,8.63
2023-01-23T05:53:37.845Z,8.20
2023-01-23T05:56:08.852Z,8.80
2023-01-23T05:58:43.653Z,8.23
2023-01-23T06:01:36.632Z,8.32
2023-01-23T06:04:22.177Z,8.10
2023-01-23T06:06:58.326Z,7.13
2023-01-23T06:09:25.215Z,8.00
2023-01-23T06:11:52.492Z,7.87
2023-01-23T06:14:20.079Z,8.57
2023-01-23T06:16:47.227Z,8.15
2023-01-23T06:19:14.107Z,7.82
2023-01-23T06:21:41.436Z,8.60
2023-01-23T06:24:08.549Z,8.13
2023-01-23T06:26:35.793Z,7.90
2023-01-23T06:29:02.883Z,8.07
2023-01-23T06:31:32.832Z,7.50
2023-01-23T06:34:01.751Z,8.23
2023-01-23T06:36:34.563Z,8.17
2023-01-23T06:39:01.539Z,7.82
2023-01-23T06:41:36.295Z,7.90
2023-01-23T06:44:05.348Z,7.30
2023-01-23T06:46:32.738Z,7.32
2023-01-23T06:48:59.637Z,6.93
2023-01-23T06:51:27.940Z,7.68
2023-01-23T06:53:54.899Z,8.25
2023-01-23T06:56:22.731Z,8.50
2023-01-23T06:58:50.236Z,7.97
2023-01-23T07:01:24.258Z,7.17
2023-01-23T07:04:11.404Z,7.93
2023-01-23T07:06:40.360Z,8.10
2023-01-23T07:09:08.130Z,8.25
2023-01-23T07:11:37.466Z,8.32
2023-01-23T07:14:06.155Z,8.07
2023-01-23T07:16:36.439Z,8.05
2023-01-23T07:19:05.625Z,8.77
2023-01-23T07:21:35.673Z,8.55
2023-01-23T07:24:02.720Z,8.63
2023-01-23T07:26:29.880Z,9.27
2023-01-23T07:28:56.777Z,8.32
2023-01-23T07:31:24.167Z,8.30
2023-01-23T07:33:51.747Z,7.93
2023-01-23T07:36:19.247Z,8.57
2023-01-23T07:38:46.031Z,8.60
2023-01-23T07:41:13.886Z,9.45
2023-01-23T07:43:40.709Z,8.60
2023-01-23T07:46:09.597Z,9.35
2023-01-23T07:48:37.559Z,8.63
2023-01-23T07:51:05.841Z,9.40
2023-01-23T07:53:32.852Z,8.53
2023-01-23T07:56:00.107Z,8.90
2023-01-23T07:58:27.040Z,8.88
2023-01-23T08:00:54.285Z,7.78
2023-01-23T08:03:21.272Z,9.30
2023-01-23T08:05:49.853Z,7.57
2023-01-23T08:08:17.323Z,7.63
2023-01-23T08:10:44.902Z,7.57
2023-01-23T08:13:12.631Z,8.63
2023-01-23T08:15:40.405Z,8.90
2023-01-23T08:18:08.046Z,8.97
2023-01-23T08:20:35.722Z,8.35
2023-01-23T08:23:02.943Z,8.23
2023-01-23T08:25:31.086Z,7.90
2023-01-23T08:27:58.277Z,9.07
2023-01-23T08:30:26.059Z,8.27
2023-01-23T08:32:53.231Z,10.07
2023-01-23T08:35:20.691Z,9.05
2023-01-23T08:37:47.996Z,9.57
2023-01-23T08:40:16.056Z,8.80
2023-01-23T08:42:43.132Z,8.93
2023-01-23T08:45:10.855Z,8.88
2023-01-23T08:47:38.643Z,8.10
2023-01-23T08:50:06.890Z,8.48
2023-01-23T08:52:35.537Z,8.13
2023-01-23T08:55:03.222Z,8.97
2023-01-23T08:57:30.727Z,8.45
2023-01-23T08:59:58.158Z,7.90
2023-01-23T09:02:25.353Z,7.78
2023-01-23T09:04:52.988Z,7.18
2023-01-23T09:07:20.204Z,7.53
2023-01-23T09:09:47.862Z,7.88
2023-01-23T09:12:15.186Z,7.13
2023-01-23T09:14:43.062Z,7.65
2023-01-23T09:17:10.329Z,8.50
2023-01-23T09:19:37.614Z,8.43
2023-01-23T09:22:04.723Z,7.80
2023-01-23T09:24:31.893Z,8.27
2023-01-23T09:26:58.731Z,7.22
2023-01-23T09:29:25.866Z,7.60
2023-01-23T09:31:53.053Z,7.67
2023-01-23T09:34:20.346Z,7.97
2023-01-23T09:36:47.212Z,7.38
2023-01-23T09:39:14.418Z,7.30
2023-01-23T09:41:43.795Z,7.10
2023-01-23T09:44:13.568Z,6.93
2023-01-23T09:46:59.258Z,7.35
2023-01-23T09:49:49.353Z,7.80
2023-01-23T09:52:20.303Z,8.07
2023-01-23T09:54:50.482Z,7.50
2023-01-23T09:57:21.254Z,8.10
2023-01-23T10:00:00.473Z,7.35
2023-01-23T10:02:29.063Z,7.20
2023-01-23T10:04:58.596Z,8.25
2023-01-23T10:07:49.548Z,8.35
2023-01-23T10:10:44.400Z,7.87
2023-01-23T10:13:18.619Z,8.50
2023-01-23T10:16:04.671Z,8.57
2023-01-23T10:18:37.435Z,8.45
2023-01-23T10:21:22.561Z,9.25
2023-01-23T10:23:52.276Z,9.07
2023-01-23T10:26:23.681Z,9.57
2023-01-23T10:28:57.695Z,10.02
2023-01-23T10:31:36.207Z,9.65
2023-01-23T10:34:09.156Z,9.55
2023-01-23T10:37:03.932Z,8.97
2023-01-23T10:39:49.101Z,8.75
2023-01-23T10:42:20.862Z,9.70
2023-01-23T10:44:48.193Z,8.73
2023-01-23T10:47:27.940Z,10.10
2023-01-23T10:49:56.847Z,9.70
2023-01-23T10:52:32.857Z,8.82
2023-01-23T10:54:59.844Z,10.10
2023-01-23T10:57:35.056Z,9.93
2023-01-23T11:00:24.564Z,9.68
2023-01-23T11:02:52.107Z,10.13
2023-01-23T11:05:51.532Z,9.45
2023-01-23T11:08:25.892Z,9.95
2023-01-23T11:10:53.346Z,8.65
2023-01-23T11:13:29.284Z,10.23
2023-01-23T11:15:56.471Z,9.03
2023-01-23T11:18:32.411Z,7.78
2023-01-23T11:21:00.286Z,9.07
2023-01-23T11:23:27.765Z,10.20
2023-01-23T11:25:55.521Z,8.63
2023-01-23T11:28:30.914Z,10.43
2023-01-23T11:31:15.484Z,9.20
2023-01-23T11:33:58.563Z,10.00
2023-01-23T11:36:38.618Z,9.70
2023-01-23T11:39:20.439Z,9.30
2023-01-23T11:41:47.741Z,9.85
2023-01-23T11:44:18.654Z,9.18
2023-01-23T11:47:11.087Z,9.93
2023-01-23T11:50:02.839Z,9.57
2023-01-23T11:52:32.909Z,10.10
2023-01-23T11:55:38.726Z,10.10
2023-01-23T11:58:24.798Z,9.45
2023-01-23T12:01:20.634Z,9.93
2023-01-23T12:04:16.915Z,10.02
2023-01-23T12:06:57.079Z,9.55
2023-01-23T12:09:33.639Z,9.70
2023-01-23T12:12:48.263Z,10.02
2023-01-23T12:15:45.342Z,9.93
2023-01-23T12:18:21.904Z,9.77
2023-01-23T12:21:03.343Z,9.18
2023-01-23T12:23:46.071Z,8.98
2023-01-23T12:26:22.590Z,9.05
2023-01-23T12:29:35.642Z,9.90
2023-01-23T12:32:11.002Z,8.93
2023-01-23T12:35:03.020Z,9.30
2023-01-23T12:38:02.683Z,9.45
2023-01-23T12:40:56.091Z,11.27
2023-01-23T12:43:40.364Z,10.03
2023-01-23T12:46:13.262Z,8.65
2023-01-23T12:49:04.773Z,9.05
2023-01-23T12:51:38.707Z,9.23
2023-01-23T12:54:25.726Z,9.57
2023-01-23T12:56:53.900Z,9.50
2023-01-23T12:59:29.819Z,10.15
2023-01-23T13:02:22.757Z,10.23
2023-01-23T13:05:08.041Z,9.57
2023-01-23T13:07:48.747Z,10.48
2023-01-23T13:10:25.884Z,10.40
2023-01-23T13:12:56.271Z,10.00
2023-01-23T13:15:40.419Z,9.80
2023-01-23T13:18:22.720Z,9.88
2023-01-23T13:21:15.972Z,9.65
2023-01-23T13:23:43.683Z,9.97
2023-01-23T13:26:16.364Z,9.07
2023-01-23T13:28:48.804Z,10.98
2023-01-23T13:31:36.906Z,10.50
2023-01-23T13:34:16.526Z,9.43
2023-01-23T13:36:45.012Z,9.57
2023-01-23T13:39:15.167Z,9.13
2023-01-23T13:41:43.227Z,10.67
2023-01-23T13:44:21.423Z,10.40
2023-01-23T14:21:52.418Z,10.20
2023-01-23T14:24:41.231Z,10.03
2023-01-23T14:27:21.843Z,9.73
2023-01-23T14:30:02.871Z,10.90
2023-01-23T14:32:32.831Z,8.40
2023-01-23T14:35:00.111Z,9.07
2023-01-23T14:37:28.335Z,9.20
2023-01-23T14:39:59.825Z,10.00
2023-01-23T14:42:30.536Z,9.82
2023-01-23T14:45:02.002Z,10.93
2023-01-23T14:47:34.372Z,10.38
2023-01-23T14:50:03.200Z,9.33
2023-01-23T14:52:31.285Z,8.77
2023-01-23T14:55:08.176Z,9.35
2023-01-23T14:57:39.101Z,8.73
2023-01-23T15:00:07.043Z,9.70
2023-01-23T15:02:36.117Z,9.27
2023-01-23T15:05:12.684Z,9.23
2023-01-23T15:08:16.882Z,8.38
2023-01-23T15:10:48.154Z,9.07
2023-01-23T15:13:29.943Z,9.40
2023-01-23T15:16:06.441Z,9.30
2023-01-23T15:18:35.977Z,9.05
2023-01-23T15:21:05.447Z,9.02
2023-01-23T15:23:39.974Z,8.32
2023-01-23T15:26:19.324Z,9.07
2023-01-23T15:28:56.693Z,8.17
2023-01-23T15:31:26.409Z,8.90
2023-01-23T15:33:54.740Z,9.75
2023-01-23T15:36:26.466Z,9.85
2023-01-23T15:38:54.916Z,9.77
2023-01-23T15:41:38.148Z,9.43
2023-01-23T15:44:12.981Z,10.45
2023-01-23T15:46:40.197Z,9.20
2023-01-23T15:49:16.439Z,8.45
2023-01-23T15:51:51.402Z,9.13
2023-01-23T15:54:26.093Z,8.67
2023-01-23T15:57:05.413Z,9.13
2023-01-23T15:59:35.553Z,8.68
2023-01-23T16:02:03.084Z,8.23
2023-01-23T16:04:30.019Z,9.38
2023-01-23T16:07:00.334Z,8.85
2023-01-23T16:09:33.249Z,8.23
2023-01-23T16:12:00.971Z,9.95
2023-01-23T16:14:28.228Z,8.07
2023-01-23T16:16:58.090Z,9.27
2023-01-23T16:19:26.993Z,8.50
2023-01-23T16:22:04.395Z,9.13
2023-01-23T16:24:37.535Z,8.95
2023-01-23T16:27:04.854Z,8.68
2023-01-23T16:29:33.963Z,8.35
2023-01-23T16:32:03.206Z,9.77
2023-01-23T16:34:30.467Z,9.63
2023-01-23T16:36:59.703Z,9.55
2023-01-23T16:39:30.226Z,10.13
2023-01-23T16:41:57.526Z,9.18
2023-01-23T16:44:24.963Z,9.30
2023-01-23T16:46:53.378Z,9.80
2023-01-23T16:49:20.845Z,9.38
2023-01-23T16:51:56.805Z,9.75
2023-01-23T16:54:24.881Z,9.23
2023-01-23T16:56:54.601Z,9.63
2023-01-23T16:59:30.640Z,10.93
2023-01-23T17:01:58.211Z,9.30
2023-01-23T17:04:25.134Z,10.43
2023-01-23T17:06:52.359Z,10.25
2023-01-23T17:09:19.223Z,9.32
2023-01-23T17:11:49.756Z,9.87
2023-01-23T17:14:21.431Z,10.88
2023-01-23T17:16:50.120Z,10.15
2023-01-23T17:19:22.471Z,9.77
2023-01-23T17:21:50.052Z,10.27
2023-01-23T17:24:17.882Z,8.97
2023-01-23T17:26:45.170Z,11.32
2023-01-23T17:29:12.632Z,10.50
2023-01-23T17:31:40.171Z,9.52
2023-01-23T17:34:09.505Z,9.48
2023-01-23T17:36:36.876Z,10.60
2023-01-23T17:39:04.206Z,10.10
2023-01-23T17:41:32.407Z,9.85
2023-01-23T17:44:00.148Z,10.05
2023-01-23T17:46:31.416Z,9.27
2023-01-23T17:48:58.294Z,9.63
2023-01-23T17:51:26.543Z,9.85
2023-01-23T17:53:53.726Z,9.70
2023-01-23T17:56:20.936Z,9.85
2023-01-23T17:58:47.823Z,10.43
2023-01-23T18:01:24.951Z,9.17
2023-01-23T18:03:53.341Z,9.85
2023-01-23T18:06:20.997Z,8.88
2023-01-23T18:08:47.829Z,9.20
2023-01-23T18:11:21.519Z,10.20
2023-01-23T18:13:57.799Z,10.47
2023-01-23T18:16:27.424Z,9.20
2023-01-23T18:19:00.091Z,10.20
2023-01-23T18:21:27.692Z,9.73
2023-01-23T18:23:55.289Z,9.60
2023-01-23T18:26:48.966Z,8.83
2023-01-23T18:29:34.310Z,9.80
2023-01-23T18:32:18.922Z,10.10
2023-01-23T18:35:21.021Z,9.88
2023-01-23T18:38:01.196Z,9.52
2023-01-23T18:40:46.352Z,9.57
2023-01-23T18:43:31.777Z,10.38
2023-01-23T18:45:58.944Z,9.13
2023-01-23T18:48:26.434Z,10.10
2023-01-23T18:51:05.672Z,9.15
2023-01-23T18:53:47.114Z,8.97
2023-01-23T18:56:30.471Z,9.57
2023-01-23T18:59:13.484Z,8.65
2023-01-23T19:01:53.448Z,9.40
2023-01-23T19:04:32.131Z,10.15
2023-01-23T19:06:59.175Z,9.77
2023-01-23T19:09:27.555Z,8.85
2023-01-23T19:12:29.251Z,9.13
2023-01-23T19:15:09.958Z,9.30
2023-01-23T19:17:52.232Z,9.73
2023-01-23T19:20:39.568Z,9.07
2023-01-23T19:23:14.931Z,8.98
2023-01-23T19:25:45.497Z,9.50
2023-01-23T19:28:12.584Z,8.20
2023-01-23T19:30:40.157Z,9.68
2023-01-23T19:33:07.308Z,8.60
2023-01-23T19:35:34.488Z,8.75
2023-01-23T19:38:01.344Z,8.73
2023-01-23T19:40:28.515Z,8.82
2023-01-23T19:43:12.750Z,10.20
2023-01-23T19:45:41.117Z,10.30
2023-01-23T19:48:09.284Z,8.88
2023-01-23T19:50:36.760Z,9.07
2023-01-23T19:53:04.285Z,8.82
2023-01-23T19:55:36.322Z,11.07
2023-01-23T19:58:03.152Z,9.40
2023-01-23T20:00:35.448Z,8.30
2023-01-23T20:03:04.998Z,8.70
2023-01-23T20:05:32.175Z,9.35
2023-01-23T20:08:01.168Z,9.43
2023-01-23T20:10:28.328Z,10.37
2023-01-23T20:12:56.807Z,9.27
2023-01-23T20:15:25.919Z,8.32
2023-01-23T20:17:54.088Z,11.00
2023-01-23T20:20:21.820Z,9.00
2023-01-23T20:22:49.573Z,8.83
2023-01-23T20:25:17.383Z,9.02
2023-01-23T20:27:44.974Z,10.40
2023-01-23T20:30:16.882Z,9.05
2023-01-23T20:32:44.470Z,7.95
2023-01-23T20:35:11.823Z,9.27
2023-01-23T20:37:39.026Z,8.57
2023-01-23T20:40:08.923Z,8.82
2023-01-23T20:42:36.129Z,8.70
2023-01-23T20:45:03.744Z,9.00
2023-01-23T20:47:30.941Z,7.87
2023-01-23T20:49:57.823Z,7.88
2023-01-23T20:52:43.675Z,7.65
2023-01-23T20:55:10.550Z,7.82
2023-01-23T20:57:56.382Z,9.05
2023-01-23T21:00:23.239Z,8.13
2023-01-23T21:02:50.748Z,7.60
2023-01-23T21:05:17.655Z,7.53
2023-01-23T21:07:44.768Z,8.18
2023-01-23T21:10:11.751Z,9.05
2023-01-23T21:12:39.013Z,8.57
2023-01-23T21:15:06.333Z,7.50
2023-01-23T21:17:33.567Z,8.02
2023-01-23T21:20:00.450Z,7.78
2023-01-23T21:22:27.801Z,8.20
2023-01-23T21:24:54.675Z,8.33
2023-01-23T21:27:23.958Z,8.00
2023-01-23T21:29:52.033Z,8.23
2023-01-23T21:32:21.236Z,7.60
2023-01-23T21:34:48.259Z,9.13
2023-01-23T21:37:15.411Z,8.63
2023-01-23T21:39:42.318Z,8.48
2023-01-23T21:42:09.646Z,8.48
2023-01-23T21:44:36.546Z,8.27
2023-01-23T21:47:03.772Z,8.55
2023-01-23T21:49:31.489Z,8.17
2023-01-23T21:51:58.712Z,8.15
2023-01-23T21:54:26.291Z,8.35
2023-01-23T21:56:53.468Z,8.68
2023-01-23T21:59:20.314Z,7.93
2023-01-23T22:01:47.584Z,8.43
2023-01-23T22:04:22.645Z,7.70
2023-01-23T22:06:55.625Z,7.97
2023-01-23T22:09:27.002Z,7.78
2023-01-23T22:11:54.931Z,7.63
2023-01-23T22:14:22.072Z,7.37
2023-01-23T22:16:50.711Z,7.68
2023-01-23T22:19:23.344Z,7.95
2023-01-23T22:21:51.844Z,7.05
2023-01-23T22:24:18.841Z,7.63
2023-01-23T22:26:46.111Z,7.80
2023-01-23T22:29:14.036Z,7.53
2023-01-23T22:31:41.551Z,7.55
2023-01-23T22:34:08.904Z,7.88
2023-01-23T22:36:36.342Z,7.82
2023-01-23T22:39:03.190Z,7.83
2023-01-23T22:41:30.389Z,8.43
2023-01-23T22:43:59.509Z,7.88
2023-01-23T22:46:28.191Z,8.90
2023-01-23T22:48:55.180Z,8.68
2023-01-23T22:51:27.309Z,7.27
2023-01-23T22:53:55.702Z,8.88
2023-01-23T22:56:24.092Z,8.02
2023-01-23T22:58:53.480Z,8.30
2023-01-23T23:01:23.157Z,7.85
2023-01-23T23:03:51.254Z,8.43
2023-01-23T23:06:19.336Z,9.20
2023-01-23T23:08:47.887Z,8.32
2023-01-23T23:11:18.275Z,8.68
2023-01-23T23:13:45.841Z,8.88
2023-01-23T23:16:26.822Z,8.47
2023-01-23T23:18:55.635Z,8.32
2023-01-23T23:21:28.240Z,8.70
2023-01-23T23:23:59.258Z,9.18
2023-01-23T23:26:28.258Z,9.00
2023-01-23T23:28:55.481Z,9.20
2023-01-23T23:31:22.953Z,8.43
2023-01-23T23:33:50.152Z,8.50
2023-01-23T23:36:17.868Z,9.65
2023-01-23T23:38:44.835Z,8.80
2023-01-23T23:41:14.520Z,8.63
2023-01-23T23:43:41.926Z,9.40
2023-01-23T23:46:10.534Z,9.35
2023-01-23T23:48:38.543Z,8.13
2023-01-23T23:51:08.314Z,8.82
2023-01-23T23:53:36.331Z,7.83
2023-01-23T23:56:04.753Z,7.82
2023-01-23T23:58:32.211Z,8.57
